logo
Search for airport 
image banner adimage banner adimage banner ad
image banner ad

EHG016 - Noordkop

Located in , Netherlands

ICAO - , IATA -

Data provided by Airmate  

General information

Coordinates: N52°53'43" E5°0'18"
Elevation is feet MSL.
Magnetic variation is 1.5625° East
View others Airports in Noord-Holland

Operational data

Special qualification required
Current time UTC:
Current local time:
Weather at : EHKD - Den Helder/De Kooy ( 15 km )
METAR: EHKD 231628Z AUTO 21014KT 180V240 9999 SCT014 BKN017 BKN021 07/05 Q0989 GRN TEMPO 21015G25KT 4000 SHRA SCT012 SCT015CB
TAF: TAF EHKD 231326Z 2314/2402 24020G30KT 9999 FEW025 BKN030 BECMG 2314/2316 21015G25KT TEMPO 2314/2402 4000 SHRA SHRAGS SCT015 SCT020CB PROB30 TEMPO 2316/2322 2000 TSRA BKN012 SCT015CB BECMG 2318/2320 18008KT
View NOTAMs / SUP AIP / TFR affecting this airport [VIEW]
Communications frequencies: [VIEW]

Runways:

Airport contact information

Address: Netherlands

Satellite view of EHG016